sensor_id;sensor_type;location;lat;lon;timestamp;pressure;altitude;pressure_sealevel;temperature;humidity
78373;BME280;67656;52.074;4.758;2023-07-20T00:04:11;101524.34;;;17.05;100.00
78373;BME280;67656;52.074;4.758;2023-07-20T00:09:11;101535.59;;;17.12;100.00
78373;BME280;67656;52.074;4.758;2023-07-20T00:14:11;101531.78;;;16.97;100.00
78373;BME280;67656;52.074;4.758;2023-07-20T00:19:12;101528.91;;;17.01;100.00
78373;BME280;67656;52.074;4.758;2023-07-20T00:24:13;101531.88;;;16.73;100.00
78373;BME280;67656;52.074;4.758;2023-07-20T00:29:13;101530.56;;;16.63;100.00
78373;BME280;67656;52.074;4.758;2023-07-20T00:34:14;101530.16;;;16.72;100.00
78373;BME280;67656;52.074;4.758;2023-07-20T00:39:15;101534.28;;;16.58;100.00
78373;BME280;67656;52.074;4.758;2023-07-20T00:44:15;101520.63;;;16.46;100.00
78373;BME280;67656;52.074;4.758;2023-07-20T00:49:16;101526.88;;;16.45;100.00
78373;BME280;67656;52.074;4.758;2023-07-20T00:54:16;101529.19;;;16.32;100.00
78373;BME280;67656;52.074;4.758;2023-07-20T00:59:17;101526.53;;;16.32;100.00
78373;BME280;67656;52.074;4.758;2023-07-20T01:04:17;101519.72;;;16.45;100.00
78373;BME280;67656;52.074;4.758;2023-07-20T01:09:19;101520.53;;;16.47;100.00
78373;BME280;67656;52.074;4.758;2023-07-20T01:14:23;101521.94;;;16.35;100.00
78373;BME280;67656;52.074;4.758;2023-07-20T01:19:24;101525.72;;;16.30;100.00
78373;BME280;67656;52.074;4.758;2023-07-20T01:24:39;101525.97;;;16.23;100.00
78373;BME280;67656;52.074;4.758;2023-07-20T01:35:17;101540.25;;;15.99;100.00
78373;BME280;67656;52.074;4.758;2023-07-20T01:40:22;101546.47;;;15.99;100.00
78373;BME280;67656;52.074;4.758;2023-07-20T01:45:22;101549.25;;;15.96;100.00
78373;BME280;67656;52.074;4.758;2023-07-20T01:50:23;101548.97;;;16.02;100.00
78373;BME280;67656;52.074;4.758;2023-07-20T01:55:23;101550.91;;;15.99;100.00
78373;BME280;67656;52.074;4.758;2023-07-20T02:00:23;101542.69;;;16.05;100.00
78373;BME280;67656;52.074;4.758;2023-07-20T02:05:24;101552.66;;;16.00;100.00
78373;BME280;67656;52.074;4.758;2023-07-20T02:10:25;101542.88;;;16.00;100.00
78373;BME280;67656;52.074;4.758;2023-07-20T02:15:25;101544.03;;;15.93;100.00
78373;BME280;67656;52.074;4.758;2023-07-20T02:20:25;101540.81;;;15.85;100.00
78373;BME280;67656;52.074;4.758;2023-07-20T02:25:26;101545.97;;;15.89;100.00
78373;BME280;67656;52.074;4.758;2023-07-20T02:30:26;101539.59;;;15.93;100.00
78373;BME280;67656;52.074;4.758;2023-07-20T02:35:26;101543.19;;;15.92;100.00
78373;BME280;67656;52.074;4.758;2023-07-20T02:40:27;101549.47;;;15.90;100.00
78373;BME280;67656;52.074;4.758;2023-07-20T02:45:27;101551.72;;;15.77;100.00
78373;BME280;67656;52.074;4.758;2023-07-20T02:50:27;101545.94;;;15.65;100.00
78373;BME280;67656;52.074;4.758;2023-07-20T02:55:28;101556.25;;;15.51;100.00
78373;BME280;67656;52.074;4.758;2023-07-20T03:00:28;101559.91;;;15.48;100.00
78373;BME280;67656;52.074;4.758;2023-07-20T03:05:29;101569.66;;;15.48;100.00
78373;BME280;67656;52.074;4.758;2023-07-20T03:10:29;101570.69;;;15.44;100.00
78373;BME280;67656;52.074;4.758;2023-07-20T03:15:30;101567.44;;;15.35;100.00
78373;BME280;67656;52.074;4.758;2023-07-20T03:20:31;101570.69;;;15.44;100.00
78373;BME280;67656;52.074;4.758;2023-07-20T03:25:31;101584.88;;;15.44;100.00
78373;BME280;67656;52.074;4.758;2023-07-20T03:30:32;101582.38;;;15.40;100.00
78373;BME280;67656;52.074;4.758;2023-07-20T03:35:32;101577.25;;;15.33;100.00
78373;BME280;67656;52.074;4.758;2023-07-20T03:40:33;101577.53;;;15.26;100.00
78373;BME280;67656;52.074;4.758;2023-07-20T03:45:33;101593.81;;;15.42;100.00
78373;BME280;67656;52.074;4.758;2023-07-20T03:50:33;101590.06;;;15.47;100.00
78373;BME280;67656;52.074;4.758;2023-07-20T03:55:34;101584.13;;;15.41;100.00
78373;BME280;67656;52.074;4.758;2023-07-20T04:00:34;101584.97;;;15.41;100.00
78373;BME280;67656;52.074;4.758;2023-07-20T04:05:35;101582.47;;;15.36;100.00
78373;BME280;67656;52.074;4.758;2023-07-20T04:10:35;101587.44;;;15.46;100.00
78373;BME280;67656;52.074;4.758;2023-07-20T04:15:35;101589.66;;;15.58;100.00
78373;BME280;67656;52.074;4.758;2023-07-20T04:20:36;101591.75;;;15.50;100.00
78373;BME280;67656;52.074;4.758;2023-07-20T04:25:39;101590.59;;;15.57;100.00
78373;BME280;67656;52.074;4.758;2023-07-20T04:30:40;101598.56;;;15.57;100.00
78373;BME280;67656;52.074;4.758;2023-07-20T04:40:52;101594.81;;;15.63;100.00
78373;BME280;67656;52.074;4.758;2023-07-20T04:45:53;101614.78;;;15.75;100.00
78373;BME280;67656;52.074;4.758;2023-07-20T04:50:54;101620.31;;;15.94;100.00
78373;BME280;67656;52.074;4.758;2023-07-20T04:55:54;101618.13;;;16.27;100.00
78373;BME280;67656;52.074;4.758;2023-07-20T05:00:57;101613.91;;;16.66;100.00
78373;BME280;67656;52.074;4.758;2023-07-20T05:05:58;101612.16;;;16.87;100.00
78373;BME280;67656;52.074;4.758;2023-07-20T05:10:59;101610.06;;;17.16;100.00
78373;BME280;67656;52.074;4.758;2023-07-20T05:15:59;101595.84;;;17.16;100.00
78373;BME280;67656;52.074;4.758;2023-07-20T05:21:00;101601.78;;;17.23;100.00
78373;BME280;67656;52.074;4.758;2023-07-20T05:26:01;101590.97;;;17.26;100.00
78373;BME280;67656;52.074;4.758;2023-07-20T05:31:04;101599.31;;;17.18;100.00
78373;BME280;67656;52.074;4.758;2023-07-20T05:36:04;101601.34;;;17.13;100.00
78373;BME280;67656;52.074;4.758;2023-07-20T05:41:05;101603.84;;;17.37;100.00
78373;BME280;67656;52.074;4.758;2023-07-20T05:46:06;101599.25;;;17.40;100.00
78373;BME280;67656;52.074;4.758;2023-07-20T05:51:12;101603.28;;;18.27;100.00
78373;BME280;67656;52.074;4.758;2023-07-20T05:56:13;101600.72;;;19.15;100.00
78373;BME280;67656;52.074;4.758;2023-07-20T06:01:34;101590.81;;;19.84;100.00
78373;BME280;67656;52.074;4.758;2023-07-20T06:06:35;101589.94;;;20.00;100.00
78373;BME280;67656;52.074;4.758;2023-07-20T06:11:35;101592.72;;;20.30;100.00
78373;BME280;67656;52.074;4.758;2023-07-20T06:16:36;101581.56;;;20.84;100.00
78373;BME280;67656;52.074;4.758;2023-07-20T06:27:00;101586.84;;;20.23;100.00
78373;BME280;67656;52.074;4.758;2023-07-20T06:32:07;101590.66;;;20.82;100.00
78373;BME280;67656;52.074;4.758;2023-07-20T06:37:08;101601.47;;;20.80;100.00
78373;BME280;67656;52.074;4.758;2023-07-20T06:42:08;101600.69;;;20.78;100.00
78373;BME280;67656;52.074;4.758;2023-07-20T06:47:08;101599.75;;;20.79;100.00
78373;BME280;67656;52.074;4.758;2023-07-20T06:52:09;101601.09;;;20.86;100.00
78373;BME280;67656;52.074;4.758;2023-07-20T06:57:09;101604.38;;;21.94;100.00
78373;BME280;67656;52.074;4.758;2023-07-20T07:02:10;101601.38;;;23.47;100.00
78373;BME280;67656;52.074;4.758;2023-07-20T07:07:10;101599.72;;;22.93;100.00
78373;BME280;67656;52.074;4.758;2023-07-20T07:12:10;101608.59;;;23.34;100.00
78373;BME280;67656;52.074;4.758;2023-07-20T07:17:11;101607.69;;;22.54;100.00
78373;BME280;67656;52.074;4.758;2023-07-20T07:22:11;101611.44;;;22.92;100.00
78373;BME280;67656;52.074;4.758;2023-07-20T07:27:12;101608.38;;;23.63;100.00
78373;BME280;67656;52.074;4.758;2023-07-20T07:32:12;101611.72;;;23.54;100.00
78373;BME280;67656;52.074;4.758;2023-07-20T07:37:13;101614.25;;;24.07;100.00
78373;BME280;67656;52.074;4.758;2023-07-20T07:42:14;101610.41;;;24.47;100.00
78373;BME280;67656;52.074;4.758;2023-07-20T07:47:18;101603.41;;;25.04;97.48
78373;BME280;67656;52.074;4.758;2023-07-20T07:52:18;101616.31;;;24.28;100.00
78373;BME280;67656;52.074;4.758;2023-07-20T07:57:19;101605.06;;;24.82;100.00
78373;BME280;67656;52.074;4.758;2023-07-20T08:02:19;101601.16;;;25.79;96.44
78373;BME280;67656;52.074;4.758;2023-07-20T08:07:20;101603.22;;;24.83;95.93
78373;BME280;67656;52.074;4.758;2023-07-20T08:12:29;101609.03;;;25.82;96.25
78373;BME280;67656;52.074;4.758;2023-07-20T08:17:30;101617.38;;;24.38;100.00
78373;BME280;67656;52.074;4.758;2023-07-20T08:22:30;101618.25;;;25.45;97.99
78373;BME280;67656;52.074;4.758;2023-07-20T08:27:31;101620.59;;;24.19;97.12
78373;BME280;67656;52.074;4.758;2023-07-20T08:32:32;101620.34;;;23.20;100.00
78373;BME280;67656;52.074;4.758;2023-07-20T08:37:32;101626.63;;;24.71;100.00
78373;BME280;67656;52.074;4.758;2023-07-20T08:42:33;101620.19;;;25.66;98.32
78373;BME280;67656;52.074;4.758;2023-07-20T08:47:34;101611.81;;;26.59;90.89
78373;BME280;67656;52.074;4.758;2023-07-20T08:52:34;101605.44;;;25.82;86.35
78373;BME280;67656;52.074;4.758;2023-07-20T08:57:36;101615.47;;;25.11;91.62
78373;BME280;67656;52.074;4.758;2023-07-20T09:02:38;101620.47;;;22.91;100.00
78373;BME280;67656;52.074;4.758;2023-07-20T09:07:40;101618.72;;;23.30;100.00
78373;BME280;67656;52.074;4.758;2023-07-20T09:12:42;101622.03;;;23.86;100.00
78373;BME280;67656;52.074;4.758;2023-07-20T09:17:47;101609.69;;;25.16;91.17
78373;BME280;67656;52.074;4.758;2023-07-20T09:22:47;101614.94;;;24.95;90.90
78373;BME280;67656;52.074;4.758;2023-07-20T09:27:49;101613.88;;;22.69;100.00
78373;BME280;67656;52.074;4.758;2023-07-20T09:32:49;101614.88;;;22.27;100.00
78373;BME280;67656;52.074;4.758;2023-07-20T09:37:53;101606.91;;;22.80;100.00
78373;BME280;67656;52.074;4.758;2023-07-20T09:42:54;101607.53;;;22.83;100.00
78373;BME280;67656;52.074;4.758;2023-07-20T09:48:03;101610.78;;;22.34;100.00
78373;BME280;67656;52.074;4.758;2023-07-20T09:53:04;101609.56;;;22.67;98.21
78373;BME280;67656;52.074;4.758;2023-07-20T09:58:06;101600.19;;;25.57;84.46
78373;BME280;67656;52.074;4.758;2023-07-20T10:03:08;101599.66;;;25.18;89.21
78373;BME280;67656;52.074;4.758;2023-07-20T10:08:12;101598.75;;;25.06;93.45
78373;BME280;67656;52.074;4.758;2023-07-20T10:13:17;101600.75;;;25.95;86.67
78373;BME280;67656;52.074;4.758;2023-07-20T10:18:29;101594.72;;;25.35;89.24
78373;BME280;67656;52.074;4.758;2023-07-20T10:23:30;101597.59;;;25.79;82.37
78373;BME280;67656;52.074;4.758;2023-07-20T10:28:31;101597.38;;;24.89;88.91
78373;BME280;67656;52.074;4.758;2023-07-20T10:33:32;101598.13;;;23.68;98.87
78373;BME280;67656;52.074;4.758;2023-07-20T10:43:46;101585.38;;;26.07;86.36
78373;BME280;67656;52.074;4.758;2023-07-20T10:49:01;101593.47;;;24.20;98.36
78373;BME280;67656;52.074;4.758;2023-07-20T10:54:02;101585.66;;;23.28;100.00
78373;BME280;67656;52.074;4.758;2023-07-20T10:59:17;101579.09;;;24.33;91.81
78373;BME280;67656;52.074;4.758;2023-07-20T11:04:18;101571.56;;;24.85;86.53
78373;BME280;67656;52.074;4.758;2023-07-20T11:09:21;101575.84;;;23.90;92.92
78373;BME280;67656;52.074;4.758;2023-07-20T11:14:24;101578.34;;;23.93;95.18
78373;BME280;67656;52.074;4.758;2023-07-20T11:19:25;101566.25;;;24.12;94.91
78373;BME280;67656;52.074;4.758;2023-07-20T11:24:26;101553.34;;;26.35;78.50
78373;BME280;67656;52.074;4.758;2023-07-20T11:29:27;101562.41;;;25.90;82.31
78373;BME280;67656;52.074;4.758;2023-07-20T11:34:31;101558.78;;;25.68;81.74
78373;BME280;67656;52.074;4.758;2023-07-20T11:39:32;101553.75;;;24.71;90.34
78373;BME280;67656;52.074;4.758;2023-07-20T11:44:33;101548.47;;;24.45;91.78
78373;BME280;67656;52.074;4.758;2023-07-20T11:49:38;101543.59;;;24.50;90.96
78373;BME280;67656;52.074;4.758;2023-07-20T11:54:39;101543.94;;;26.18;78.26
78373;BME280;67656;52.074;4.758;2023-07-20T11:59:52;101550.06;;;27.88;71.36
78373;BME280;67656;52.074;4.758;2023-07-20T12:04:54;101545.00;;;27.33;68.42
78373;BME280;67656;52.074;4.758;2023-07-20T12:10:06;101541.16;;;27.25;71.48
78373;BME280;67656;52.074;4.758;2023-07-20T12:20:33;101533.41;;;27.52;66.82
78373;BME280;67656;52.074;4.758;2023-07-20T12:25:37;101526.88;;;27.23;66.42
78373;BME280;67656;52.074;4.758;2023-07-20T12:30:39;101528.16;;;26.77;69.36
78373;BME280;67656;52.074;4.758;2023-07-20T12:35:40;101518.75;;;25.51;73.46
78373;BME280;67656;52.074;4.758;2023-07-20T12:40:41;101523.16;;;26.93;74.31
78373;BME280;67656;52.074;4.758;2023-07-20T12:45:41;101527.22;;;27.09;76.55
78373;BME280;67656;52.074;4.758;2023-07-20T12:50:42;101523.66;;;27.90;62.58
78373;BME280;67656;52.074;4.758;2023-07-20T12:55:42;101515.69;;;26.11;69.12
78373;BME280;67656;52.074;4.758;2023-07-20T13:00:43;101503.47;;;25.27;78.37
78373;BME280;67656;52.074;4.758;2023-07-20T13:05:44;101501.41;;;26.09;73.62
78373;BME280;67656;52.074;4.758;2023-07-20T13:10:44;101496.91;;;27.15;70.62
78373;BME280;67656;52.074;4.758;2023-07-20T13:15:44;101498.94;;;26.05;69.81
78373;BME280;67656;52.074;4.758;2023-07-20T13:20:45;101491.09;;;25.24;70.91
78373;BME280;67656;52.074;4.758;2023-07-20T13:25:45;101495.66;;;25.47;69.09
78373;BME280;67656;52.074;4.758;2023-07-20T13:30:46;101488.16;;;25.94;63.56
78373;BME280;67656;52.074;4.758;2023-07-20T13:35:46;101482.97;;;25.70;70.40
78373;BME280;67656;52.074;4.758;2023-07-20T13:40:46;101477.13;;;26.30;71.07
78373;BME280;67656;52.074;4.758;2023-07-20T13:45:47;101476.16;;;25.87;71.76
78373;BME280;67656;52.074;4.758;2023-07-20T13:50:48;101473.38;;;26.10;64.93
78373;BME280;67656;52.074;4.758;2023-07-20T13:55:48;101464.31;;;26.53;61.52
78373;BME280;67656;52.074;4.758;2023-07-20T14:00:49;101463.47;;;26.52;62.15
78373;BME280;67656;52.074;4.758;2023-07-20T14:05:50;101456.16;;;27.26;58.25
78373;BME280;67656;52.074;4.758;2023-07-20T14:10:50;101457.25;;;27.74;50.48
78373;BME280;67656;52.074;4.758;2023-07-20T14:15:53;101461.84;;;27.74;56.55
78373;BME280;67656;52.074;4.758;2023-07-20T14:20:54;101452.31;;;28.29;54.92
78373;BME280;67656;52.074;4.758;2023-07-20T14:25:55;101454.97;;;28.48;55.10
78373;BME280;67656;52.074;4.758;2023-07-20T14:30:55;101454.47;;;28.83;52.60
78373;BME280;67656;52.074;4.758;2023-07-20T14:35:55;101462.13;;;27.71;62.09
78373;BME280;67656;52.074;4.758;2023-07-20T14:40:56;101454.94;;;26.57;58.40
78373;BME280;67656;52.074;4.758;2023-07-20T14:45:56;101459.78;;;25.44;62.67
78373;BME280;67656;52.074;4.758;2023-07-20T14:50:57;101445.38;;;25.67;67.09
78373;BME280;67656;52.074;4.758;2023-07-20T14:56:01;101454.63;;;25.41;66.94
78373;BME280;67656;52.074;4.758;2023-07-20T15:01:02;101444.78;;;25.29;71.01
78373;BME280;67656;52.074;4.758;2023-07-20T15:06:03;101447.75;;;24.69;69.65
78373;BME280;67656;52.074;4.758;2023-07-20T15:11:03;101450.00;;;24.51;68.46
78373;BME280;67656;52.074;4.758;2023-07-20T15:16:04;101454.94;;;24.10;72.44
78373;BME280;67656;52.074;4.758;2023-07-20T15:21:04;101450.50;;;24.09;73.90
78373;BME280;67656;52.074;4.758;2023-07-20T15:26:05;101440.19;;;24.03;77.54
78373;BME280;67656;52.074;4.758;2023-07-20T15:31:05;101432.09;;;24.50;77.78
78373;BME280;67656;52.074;4.758;2023-07-20T15:36:06;101427.78;;;24.25;72.23
78373;BME280;67656;52.074;4.758;2023-07-20T15:41:06;101427.00;;;24.11;78.50
78373;BME280;67656;52.074;4.758;2023-07-20T15:51:19;101430.78;;;23.84;73.42
78373;BME280;67656;52.074;4.758;2023-07-20T15:56:20;101426.13;;;24.58;69.96
78373;BME280;67656;52.074;4.758;2023-07-20T16:01:20;101424.19;;;24.82;66.85
78373;BME280;67656;52.074;4.758;2023-07-20T16:06:23;101426.53;;;24.76;66.47
78373;BME280;67656;52.074;4.758;2023-07-20T16:11:25;101418.91;;;24.11;68.52
78373;BME280;67656;52.074;4.758;2023-07-20T16:16:25;101415.84;;;23.91;70.07
78373;BME280;67656;52.074;4.758;2023-07-20T16:21:26;101412.59;;;23.75;72.36
78373;BME280;67656;52.074;4.758;2023-07-20T16:26:26;101406.44;;;24.21;72.72
78373;BME280;67656;52.074;4.758;2023-07-20T16:31:30;101406.50;;;24.67;72.08
78373;BME280;67656;52.074;4.758;2023-07-20T16:36:30;101400.84;;;24.59;68.35
78373;BME280;67656;52.074;4.758;2023-07-20T16:41:31;101408.25;;;24.79;67.30
78373;BME280;67656;52.074;4.758;2023-07-20T16:46:32;101396.00;;;23.92;72.24
78373;BME280;67656;52.074;4.758;2023-07-20T16:51:33;101406.50;;;23.84;73.03
78373;BME280;67656;52.074;4.758;2023-07-20T16:56:34;101402.22;;;24.06;72.56
78373;BME280;67656;52.074;4.758;2023-07-20T17:01:37;101391.28;;;24.54;65.40
78373;BME280;67656;52.074;4.758;2023-07-20T17:06:37;101383.44;;;23.80;68.97
78373;BME280;67656;52.074;4.758;2023-07-20T17:11:38;101384.59;;;23.89;70.15
78373;BME280;67656;52.074;4.758;2023-07-20T17:16:39;101374.91;;;23.86;69.76
78373;BME280;67656;52.074;4.758;2023-07-20T17:21:39;101376.72;;;24.10;62.78
78373;BME280;67656;52.074;4.758;2023-07-20T17:26:40;101372.13;;;24.46;67.90
78373;BME280;67656;52.074;4.758;2023-07-20T17:31:42;101370.38;;;23.87;69.08
78373;BME280;67656;52.074;4.758;2023-07-20T17:36:43;101377.34;;;23.89;74.35
78373;BME280;67656;52.074;4.758;2023-07-20T17:41:43;101361.69;;;23.35;72.21
78373;BME280;67656;52.074;4.758;2023-07-20T17:46:44;101383.41;;;22.94;76.48
78373;BME280;67656;52.074;4.758;2023-07-20T17:51:44;101373.69;;;23.05;76.44
78373;BME280;67656;52.074;4.758;2023-07-20T17:56:45;101367.66;;;22.64;77.45
78373;BME280;67656;52.074;4.758;2023-07-20T18:01:45;101362.63;;;22.96;80.38
78373;BME280;67656;52.074;4.758;2023-07-20T18:06:46;101369.25;;;22.79;81.08
78373;BME280;67656;52.074;4.758;2023-07-20T18:11:46;101366.91;;;22.49;81.61
78373;BME280;67656;52.074;4.758;2023-07-20T18:16:46;101356.78;;;22.52;80.17
78373;BME280;67656;52.074;4.758;2023-07-20T18:21:47;101364.44;;;22.46;82.06
78373;BME280;67656;52.074;4.758;2023-07-20T18:26:47;101359.72;;;22.09;83.82
78373;BME280;67656;52.074;4.758;2023-07-20T18:31:48;101352.03;;;21.49;80.82
78373;BME280;67656;52.074;4.758;2023-07-20T18:36:48;101346.34;;;21.27;85.31
78373;BME280;67656;52.074;4.758;2023-07-20T18:41:49;101355.63;;;21.08;90.66
78373;BME280;67656;52.074;4.758;2023-07-20T18:46:49;101360.59;;;21.00;97.60
78373;BME280;67656;52.074;4.758;2023-07-20T18:51:52;101361.59;;;20.84;100.00
78373;BME280;67656;52.074;4.758;2023-07-20T18:56:53;101361.94;;;20.49;100.00
78373;BME280;67656;52.074;4.758;2023-07-20T19:01:54;101355.59;;;20.36;100.00
78373;BME280;67656;52.074;4.758;2023-07-20T19:06:54;101360.59;;;20.42;100.00
78373;BME280;67656;52.074;4.758;2023-07-20T19:11:54;101359.50;;;20.30;100.00
78373;BME280;67656;52.074;4.758;2023-07-20T19:16:55;101361.53;;;20.26;100.00
78373;BME280;67656;52.074;4.758;2023-07-20T19:21:55;101360.41;;;20.45;100.00
78373;BME280;67656;52.074;4.758;2023-07-20T19:26:56;101355.97;;;20.30;100.00
78373;BME280;67656;52.074;4.758;2023-07-20T19:31:56;101354.50;;;19.79;100.00
78373;BME280;67656;52.074;4.758;2023-07-20T19:36:57;101357.84;;;19.83;100.00
78373;BME280;67656;52.074;4.758;2023-07-20T19:41:57;101374.47;;;19.73;100.00
78373;BME280;67656;52.074;4.758;2023-07-20T19:46:58;101363.78;;;19.57;100.00
78373;BME280;67656;52.074;4.758;2023-07-20T19:51:58;101358.53;;;19.40;100.00
78373;BME280;67656;52.074;4.758;2023-07-20T19:56:59;101370.25;;;19.53;100.00
78373;BME280;67656;52.074;4.758;2023-07-20T20:02:00;101377.25;;;19.40;100.00
78373;BME280;67656;52.074;4.758;2023-07-20T20:07:00;101386.06;;;19.10;100.00
78373;BME280;67656;52.074;4.758;2023-07-20T20:12:01;101375.28;;;19.11;100.00
78373;BME280;67656;52.074;4.758;2023-07-20T20:17:01;101380.44;;;18.98;100.00
78373;BME280;67656;52.074;4.758;2023-07-20T20:22:02;101382.03;;;18.85;100.00
78373;BME280;67656;52.074;4.758;2023-07-20T20:27:05;101376.66;;;18.85;100.00
78373;BME280;67656;52.074;4.758;2023-07-20T20:32:06;101389.34;;;18.81;100.00
78373;BME280;67656;52.074;4.758;2023-07-20T20:37:07;101382.69;;;18.72;100.00
78373;BME280;67656;52.074;4.758;2023-07-20T20:42:07;101380.03;;;18.39;100.00
78373;BME280;67656;52.074;4.758;2023-07-20T20:47:08;101382.25;;;18.47;100.00
78373;BME280;67656;52.074;4.758;2023-07-20T20:52:13;101378.66;;;18.48;100.00
78373;BME280;67656;52.074;4.758;2023-07-20T20:57:14;101370.81;;;18.45;100.00
78373;BME280;67656;52.074;4.758;2023-07-20T21:02:15;101370.88;;;18.43;100.00
78373;BME280;67656;52.074;4.758;2023-07-20T21:07:15;101372.91;;;18.55;100.00
78373;BME280;67656;52.074;4.758;2023-07-20T21:12:16;101367.22;;;18.28;100.00
78373;BME280;67656;52.074;4.758;2023-07-20T21:17:16;101371.63;;;18.29;100.00
78373;BME280;67656;52.074;4.758;2023-07-20T21:22:17;101358.75;;;18.20;100.00
78373;BME280;67656;52.074;4.758;2023-07-20T21:27:17;101367.06;;;18.31;100.00
78373;BME280;67656;52.074;4.758;2023-07-20T21:32:18;101375.38;;;18.42;100.00
78373;BME280;67656;52.074;4.758;2023-07-20T21:37:18;101360.94;;;18.11;100.00
78373;BME280;67656;52.074;4.758;2023-07-20T21:42:19;101362.81;;;18.09;100.00
78373;BME280;67656;52.074;4.758;2023-07-20T21:47:19;101362.13;;;18.06;100.00
78373;BME280;67656;52.074;4.758;2023-07-20T21:52:20;101358.75;;;18.02;100.00
78373;BME280;67656;52.074;4.758;2023-07-20T21:57:23;101353.84;;;17.93;100.00
78373;BME280;67656;52.074;4.758;2023-07-20T22:02:24;101357.22;;;17.96;100.00
78373;BME280;67656;52.074;4.758;2023-07-20T22:07:24;101349.16;;;17.98;100.00
78373;BME280;67656;52.074;4.758;2023-07-20T22:12:25;101357.94;;;17.83;100.00
78373;BME280;67656;52.074;4.758;2023-07-20T22:17:25;101358.94;;;17.80;100.00
78373;BME280;67656;52.074;4.758;2023-07-20T22:22:26;101349.28;;;17.77;100.00
78373;BME280;67656;52.074;4.758;2023-07-20T22:27:26;101355.88;;;17.88;100.00
78373;BME280;67656;52.074;4.758;2023-07-20T22:32:27;101346.59;;;17.77;100.00
78373;BME280;67656;52.074;4.758;2023-07-20T22:37:27;101358.00;;;17.81;100.00
78373;BME280;67656;52.074;4.758;2023-07-20T22:42:30;101349.13;;;17.80;100.00
78373;BME280;67656;52.074;4.758;2023-07-20T22:47:32;101345.72;;;17.77;100.00
78373;BME280;67656;52.074;4.758;2023-07-20T22:52:35;101339.25;;;17.83;100.00
78373;BME280;67656;52.074;4.758;2023-07-20T22:57:38;101343.69;;;17.82;100.00
78373;BME280;67656;52.074;4.758;2023-07-20T23:02:39;101325.88;;;17.65;100.00
78373;BME280;67656;52.074;4.758;2023-07-20T23:07:39;101325.88;;;17.65;100.00
78373;BME280;67656;52.074;4.758;2023-07-20T23:12:40;101326.16;;;17.59;100.00
78373;BME280;67656;52.074;4.758;2023-07-20T23:17:41;101331.97;;;17.49;100.00
78373;BME280;67656;52.074;4.758;2023-07-20T23:22:41;101325.22;;;17.42;100.00
78373;BME280;67656;52.074;4.758;2023-07-20T23:27:42;101325.03;;;17.45;100.00
78373;BME280;67656;52.074;4.758;2023-07-20T23:32:45;101313.09;;;17.35;100.00
78373;BME280;67656;52.074;4.758;2023-07-20T23:37:45;101313.84;;;17.39;100.00
78373;BME280;67656;52.074;4.758;2023-07-20T23:42:46;101321.19;;;17.33;100.00
78373;BME280;67656;52.074;4.758;2023-07-20T23:47:47;101308.69;;;17.16;100.00
78373;BME280;67656;52.074;4.758;2023-07-20T23:52:48;101306.38;;;17.09;100.00
78373;BME280;67656;52.074;4.758;2023-07-20T23:57:51;101305.78;;;16.83;100.00
